sensor_id;sensor_type;location;lat;lon;timestamp;P1;durP1;ratioP1;P2;durP2;ratioP2
5054;SDS011;13829;48.990;8.346;2023-07-09T00:00:11;13.88;;;5.90;;
5054;SDS011;13829;48.990;8.346;2023-07-09T00:02:42;9.65;;;5.95;;
5054;SDS011;13829;48.990;8.346;2023-07-09T00:05:11;7.38;;;5.22;;
5054;SDS011;13829;48.990;8.346;2023-07-09T00:07:42;8.73;;;6.10;;
5054;SDS011;13829;48.990;8.346;2023-07-09T00:10:15;7.30;;;5.72;;
5054;SDS011;13829;48.990;8.346;2023-07-09T00:12:44;7.10;;;5.78;;
5054;SDS011;13829;48.990;8.346;2023-07-09T00:15:11;6.13;;;5.22;;
5054;SDS011;13829;48.990;8.346;2023-07-09T00:17:40;8.10;;;5.57;;
5054;SDS011;13829;48.990;8.346;2023-07-09T00:20:10;10.02;;;5.78;;
5054;SDS011;13829;48.990;8.346;2023-07-09T00:22:42;7.75;;;5.60;;
5054;SDS011;13829;48.990;8.346;2023-07-09T00:25:17;7.97;;;6.03;;
5054;SDS011;13829;48.990;8.346;2023-07-09T00:27:46;9.10;;;5.25;;
5054;SDS011;13829;48.990;8.346;2023-07-09T00:30:18;9.15;;;6.32;;
5054;SDS011;13829;48.990;8.346;2023-07-09T00:32:47;8.00;;;5.93;;
5054;SDS011;13829;48.990;8.346;2023-07-09T00:35:16;9.95;;;6.10;;
5054;SDS011;13829;48.990;8.346;2023-07-09T00:37:43;8.68;;;5.78;;
5054;SDS011;13829;48.990;8.346;2023-07-09T00:40:15;11.48;;;6.15;;
5054;SDS011;13829;48.990;8.346;2023-07-09T00:42:46;8.32;;;6.25;;
5054;SDS011;13829;48.990;8.346;2023-07-09T00:45:19;7.45;;;5.53;;
5054;SDS011;13829;48.990;8.346;2023-07-09T00:47:52;9.10;;;6.00;;
5054;SDS011;13829;48.990;8.346;2023-07-09T00:50:28;9.60;;;6.80;;
5054;SDS011;13829;48.990;8.346;2023-07-09T00:53:09;8.90;;;6.75;;
5054;SDS011;13829;48.990;8.346;2023-07-09T00:55:44;14.38;;;7.00;;
5054;SDS011;13829;48.990;8.346;2023-07-09T00:58:18;8.50;;;5.97;;
5054;SDS011;13829;48.990;8.346;2023-07-09T01:00:53;9.27;;;6.45;;
5054;SDS011;13829;48.990;8.346;2023-07-09T01:03:27;8.88;;;6.20;;
5054;SDS011;13829;48.990;8.346;2023-07-09T01:06:02;8.27;;;6.00;;
5054;SDS011;13829;48.990;8.346;2023-07-09T01:08:33;8.45;;;5.95;;
5054;SDS011;13829;48.990;8.346;2023-07-09T01:11:13;7.45;;;6.05;;
5054;SDS011;13829;48.990;8.346;2023-07-09T01:13:46;10.57;;;6.57;;
5054;SDS011;13829;48.990;8.346;2023-07-09T01:16:16;9.98;;;6.40;;
5054;SDS011;13829;48.990;8.346;2023-07-09T01:18:43;8.32;;;6.07;;
5054;SDS011;13829;48.990;8.346;2023-07-09T01:21:11;10.23;;;6.45;;
5054;SDS011;13829;48.990;8.346;2023-07-09T01:23:40;8.65;;;5.97;;
5054;SDS011;13829;48.990;8.346;2023-07-09T01:26:09;9.02;;;6.50;;
5054;SDS011;13829;48.990;8.346;2023-07-09T01:28:38;8.95;;;5.72;;
5054;SDS011;13829;48.990;8.346;2023-07-09T01:31:07;7.80;;;6.53;;
5054;SDS011;13829;48.990;8.346;2023-07-09T01:33:34;9.02;;;6.50;;
5054;SDS011;13829;48.990;8.346;2023-07-09T01:36:01;7.65;;;6.28;;
5054;SDS011;13829;48.990;8.346;2023-07-09T01:38:30;14.93;;;7.00;;
5054;SDS011;13829;48.990;8.346;2023-07-09T01:40:57;9.57;;;6.20;;
5054;SDS011;13829;48.990;8.346;2023-07-09T01:43:25;8.63;;;5.70;;
5054;SDS011;13829;48.990;8.346;2023-07-09T01:45:53;10.30;;;6.35;;
5054;SDS011;13829;48.990;8.346;2023-07-09T01:48:22;8.23;;;6.50;;
5054;SDS011;13829;48.990;8.346;2023-07-09T01:50:51;12.57;;;7.00;;
5054;SDS011;13829;48.990;8.346;2023-07-09T01:53:20;7.93;;;6.50;;
5054;SDS011;13829;48.990;8.346;2023-07-09T01:55:52;11.57;;;7.05;;
5054;SDS011;13829;48.990;8.346;2023-07-09T01:58:20;14.05;;;6.93;;
5054;SDS011;13829;48.990;8.346;2023-07-09T02:00:49;11.00;;;6.38;;
5054;SDS011;13829;48.990;8.346;2023-07-09T02:03:16;9.93;;;6.90;;
5054;SDS011;13829;48.990;8.346;2023-07-09T02:05:43;18.13;;;7.78;;
5054;SDS011;13829;48.990;8.346;2023-07-09T02:08:11;18.90;;;7.47;;
5054;SDS011;13829;48.990;8.346;2023-07-09T02:10:38;16.77;;;7.82;;
5054;SDS011;13829;48.990;8.346;2023-07-09T02:13:06;16.27;;;8.13;;
5054;SDS011;13829;48.990;8.346;2023-07-09T02:15:33;15.27;;;8.05;;
5054;SDS011;13829;48.990;8.346;2023-07-09T02:18:01;16.77;;;7.70;;
5054;SDS011;13829;48.990;8.346;2023-07-09T02:20:28;15.40;;;7.93;;
5054;SDS011;13829;48.990;8.346;2023-07-09T02:22:55;16.42;;;7.25;;
5054;SDS011;13829;48.990;8.346;2023-07-09T02:25:22;18.50;;;7.63;;
5054;SDS011;13829;48.990;8.346;2023-07-09T02:27:49;22.17;;;8.55;;
5054;SDS011;13829;48.990;8.346;2023-07-09T02:30:17;15.02;;;7.75;;
5054;SDS011;13829;48.990;8.346;2023-07-09T02:32:44;9.77;;;6.65;;
5054;SDS011;13829;48.990;8.346;2023-07-09T02:35:11;10.68;;;6.65;;
5054;SDS011;13829;48.990;8.346;2023-07-09T02:37:38;8.38;;;7.40;;
5054;SDS011;13829;48.990;8.346;2023-07-09T02:40:07;11.90;;;7.20;;
5054;SDS011;13829;48.990;8.346;2023-07-09T02:42:35;14.23;;;7.43;;
5054;SDS011;13829;48.990;8.346;2023-07-09T02:45:02;10.15;;;6.20;;
5054;SDS011;13829;48.990;8.346;2023-07-09T02:47:32;10.57;;;7.65;;
5054;SDS011;13829;48.990;8.346;2023-07-09T02:49:59;10.32;;;6.63;;
5054;SDS011;13829;48.990;8.346;2023-07-09T02:52:26;9.73;;;6.63;;
5054;SDS011;13829;48.990;8.346;2023-07-09T02:54:53;8.20;;;6.40;;
5054;SDS011;13829;48.990;8.346;2023-07-09T02:57:20;10.73;;;6.47;;
5054;SDS011;13829;48.990;8.346;2023-07-09T02:59:47;9.23;;;6.88;;
5054;SDS011;13829;48.990;8.346;2023-07-09T03:02:14;11.75;;;6.95;;
5054;SDS011;13829;48.990;8.346;2023-07-09T03:04:42;11.77;;;6.97;;
5054;SDS011;13829;48.990;8.346;2023-07-09T03:07:09;11.77;;;7.07;;
5054;SDS011;13829;48.990;8.346;2023-07-09T03:09:36;17.70;;;7.88;;
5054;SDS011;13829;48.990;8.346;2023-07-09T03:12:03;19.77;;;8.05;;
5054;SDS011;13829;48.990;8.346;2023-07-09T03:14:31;16.90;;;6.95;;
5054;SDS011;13829;48.990;8.346;2023-07-09T03:16:58;10.50;;;6.80;;
5054;SDS011;13829;48.990;8.346;2023-07-09T03:19:25;12.70;;;6.57;;
5054;SDS011;13829;48.990;8.346;2023-07-09T03:21:54;12.05;;;7.03;;
5054;SDS011;13829;48.990;8.346;2023-07-09T03:24:20;12.25;;;7.78;;
5054;SDS011;13829;48.990;8.346;2023-07-09T03:26:47;15.05;;;7.68;;
5054;SDS011;13829;48.990;8.346;2023-07-09T03:29:14;14.38;;;7.50;;
5054;SDS011;13829;48.990;8.346;2023-07-09T03:31:41;14.90;;;7.55;;
5054;SDS011;13829;48.990;8.346;2023-07-09T03:34:08;9.02;;;6.45;;
5054;SDS011;13829;48.990;8.346;2023-07-09T03:36:35;15.07;;;6.93;;
5054;SDS011;13829;48.990;8.346;2023-07-09T03:39:05;12.43;;;7.07;;
5054;SDS011;13829;48.990;8.346;2023-07-09T03:41:32;10.18;;;6.72;;
5054;SDS011;13829;48.990;8.346;2023-07-09T03:43:59;10.38;;;6.80;;
5054;SDS011;13829;48.990;8.346;2023-07-09T03:46:26;9.77;;;7.28;;
5054;SDS011;13829;48.990;8.346;2023-07-09T03:48:53;10.45;;;7.07;;
5054;SDS011;13829;48.990;8.346;2023-07-09T03:51:21;9.60;;;7.00;;
5054;SDS011;13829;48.990;8.346;2023-07-09T03:53:48;7.80;;;6.88;;
5054;SDS011;13829;48.990;8.346;2023-07-09T03:56:16;8.57;;;6.47;;
5054;SDS011;13829;48.990;8.346;2023-07-09T03:58:43;9.63;;;6.88;;
5054;SDS011;13829;48.990;8.346;2023-07-09T04:01:11;10.15;;;6.70;;
5054;SDS011;13829;48.990;8.346;2023-07-09T04:03:38;7.28;;;6.40;;
5054;SDS011;13829;48.990;8.346;2023-07-09T04:06:05;8.35;;;7.32;;
5054;SDS011;13829;48.990;8.346;2023-07-09T04:08:32;11.60;;;7.18;;
5054;SDS011;13829;48.990;8.346;2023-07-09T04:10:59;8.73;;;7.47;;
5054;SDS011;13829;48.990;8.346;2023-07-09T04:13:30;14.43;;;6.72;;
5054;SDS011;13829;48.990;8.346;2023-07-09T04:15:57;7.45;;;6.38;;
5054;SDS011;13829;48.990;8.346;2023-07-09T04:18:24;7.18;;;6.22;;
5054;SDS011;13829;48.990;8.346;2023-07-09T04:20:52;7.50;;;6.80;;
5054;SDS011;13829;48.990;8.346;2023-07-09T04:23:19;7.85;;;6.90;;
5054;SDS011;13829;48.990;8.346;2023-07-09T04:25:46;7.40;;;6.30;;
5054;SDS011;13829;48.990;8.346;2023-07-09T04:28:13;10.32;;;6.35;;
5054;SDS011;13829;48.990;8.346;2023-07-09T04:30:46;8.70;;;7.03;;
5054;SDS011;13829;48.990;8.346;2023-07-09T04:33:14;8.90;;;6.50;;
5054;SDS011;13829;48.990;8.346;2023-07-09T04:35:43;10.25;;;6.57;;
5054;SDS011;13829;48.990;8.346;2023-07-09T04:38:10;8.73;;;6.65;;
5054;SDS011;13829;48.990;8.346;2023-07-09T04:40:38;8.48;;;6.22;;
5054;SDS011;13829;48.990;8.346;2023-07-09T04:43:05;8.30;;;6.28;;
5054;SDS011;13829;48.990;8.346;2023-07-09T04:45:31;7.72;;;6.32;;
5054;SDS011;13829;48.990;8.346;2023-07-09T04:48:00;9.90;;;6.72;;
5054;SDS011;13829;48.990;8.346;2023-07-09T04:50:28;6.88;;;5.85;;
5054;SDS011;13829;48.990;8.346;2023-07-09T04:52:55;7.25;;;6.50;;
5054;SDS011;13829;48.990;8.346;2023-07-09T04:55:21;7.45;;;6.40;;
5054;SDS011;13829;48.990;8.346;2023-07-09T04:57:48;9.30;;;6.50;;
5054;SDS011;13829;48.990;8.346;2023-07-09T05:00:16;8.48;;;6.10;;
5054;SDS011;13829;48.990;8.346;2023-07-09T05:02:43;6.55;;;5.70;;
5054;SDS011;13829;48.990;8.346;2023-07-09T05:05:12;8.02;;;5.95;;
5054;SDS011;13829;48.990;8.346;2023-07-09T05:07:39;7.18;;;6.15;;
5054;SDS011;13829;48.990;8.346;2023-07-09T05:10:07;8.15;;;6.15;;
5054;SDS011;13829;48.990;8.346;2023-07-09T05:12:35;8.00;;;5.85;;
5054;SDS011;13829;48.990;8.346;2023-07-09T05:15:13;8.02;;;6.15;;
5054;SDS011;13829;48.990;8.346;2023-07-09T05:17:40;8.15;;;6.05;;
5054;SDS011;13829;48.990;8.346;2023-07-09T05:20:07;5.85;;;4.57;;
5054;SDS011;13829;48.990;8.346;2023-07-09T05:22:36;7.43;;;5.75;;
5054;SDS011;13829;48.990;8.346;2023-07-09T05:25:04;7.63;;;6.28;;
5054;SDS011;13829;48.990;8.346;2023-07-09T05:27:31;8.75;;;5.70;;
5054;SDS011;13829;48.990;8.346;2023-07-09T05:29:58;7.75;;;5.35;;
5054;SDS011;13829;48.990;8.346;2023-07-09T05:32:25;5.72;;;5.10;;
5054;SDS011;13829;48.990;8.346;2023-07-09T05:34:52;7.70;;;5.25;;
5054;SDS011;13829;48.990;8.346;2023-07-09T05:37:19;5.65;;;4.90;;
5054;SDS011;13829;48.990;8.346;2023-07-09T05:39:47;7.63;;;5.30;;
5054;SDS011;13829;48.990;8.346;2023-07-09T05:42:14;10.45;;;6.53;;
5054;SDS011;13829;48.990;8.346;2023-07-09T05:44:41;6.95;;;5.40;;
5054;SDS011;13829;48.990;8.346;2023-07-09T05:47:08;5.50;;;4.90;;
5054;SDS011;13829;48.990;8.346;2023-07-09T05:49:35;6.43;;;5.20;;
5054;SDS011;13829;48.990;8.346;2023-07-09T05:52:04;8.10;;;5.25;;
5054;SDS011;13829;48.990;8.346;2023-07-09T05:54:32;6.75;;;6.03;;
5054;SDS011;13829;48.990;8.346;2023-07-09T05:57:01;7.80;;;5.22;;
5054;SDS011;13829;48.990;8.346;2023-07-09T05:59:28;7.60;;;5.38;;
5054;SDS011;13829;48.990;8.346;2023-07-09T06:01:55;7.20;;;5.70;;
5054;SDS011;13829;48.990;8.346;2023-07-09T06:04:21;5.68;;;4.95;;
5054;SDS011;13829;48.990;8.346;2023-07-09T06:06:50;7.28;;;6.07;;
5054;SDS011;13829;48.990;8.346;2023-07-09T06:09:17;10.05;;;6.18;;
5054;SDS011;13829;48.990;8.346;2023-07-09T06:11:44;7.22;;;5.40;;
5054;SDS011;13829;48.990;8.346;2023-07-09T06:14:12;6.45;;;5.18;;
5054;SDS011;13829;48.990;8.346;2023-07-09T06:16:40;8.00;;;5.80;;
5054;SDS011;13829;48.990;8.346;2023-07-09T06:19:07;7.25;;;5.72;;
5054;SDS011;13829;48.990;8.346;2023-07-09T06:21:34;8.95;;;5.68;;
5054;SDS011;13829;48.990;8.346;2023-07-09T06:24:01;8.70;;;5.55;;
5054;SDS011;13829;48.990;8.346;2023-07-09T06:26:28;7.53;;;5.65;;
5054;SDS011;13829;48.990;8.346;2023-07-09T06:28:55;9.93;;;5.43;;
5054;SDS011;13829;48.990;8.346;2023-07-09T06:31:23;12.85;;;6.18;;
5054;SDS011;13829;48.990;8.346;2023-07-09T06:33:50;9.73;;;5.10;;
5054;SDS011;13829;48.990;8.346;2023-07-09T06:36:18;10.00;;;5.85;;
5054;SDS011;13829;48.990;8.346;2023-07-09T06:38:45;6.97;;;5.07;;
5054;SDS011;13829;48.990;8.346;2023-07-09T06:41:13;8.13;;;4.90;;
5054;SDS011;13829;48.990;8.346;2023-07-09T06:43:41;7.07;;;5.55;;
5054;SDS011;13829;48.990;8.346;2023-07-09T06:46:09;6.93;;;4.72;;
5054;SDS011;13829;48.990;8.346;2023-07-09T06:48:40;5.95;;;5.15;;
5054;SDS011;13829;48.990;8.346;2023-07-09T06:51:07;8.15;;;4.55;;
5054;SDS011;13829;48.990;8.346;2023-07-09T06:53:34;7.25;;;4.38;;
5054;SDS011;13829;48.990;8.346;2023-07-09T06:56:01;8.95;;;4.85;;
5054;SDS011;13829;48.990;8.346;2023-07-09T06:58:30;7.43;;;4.28;;
5054;SDS011;13829;48.990;8.346;2023-07-09T07:01:00;6.18;;;4.10;;
5054;SDS011;13829;48.990;8.346;2023-07-09T07:03:29;5.95;;;4.18;;
5054;SDS011;13829;48.990;8.346;2023-07-09T07:05:59;6.53;;;4.10;;
5054;SDS011;13829;48.990;8.346;2023-07-09T07:08:26;6.68;;;4.20;;
5054;SDS011;13829;48.990;8.346;2023-07-09T07:10:54;5.18;;;4.65;;
5054;SDS011;13829;48.990;8.346;2023-07-09T07:13:27;4.93;;;3.88;;
5054;SDS011;13829;48.990;8.346;2023-07-09T07:15:54;5.85;;;4.28;;
5054;SDS011;13829;48.990;8.346;2023-07-09T07:18:21;5.07;;;4.00;;
5054;SDS011;13829;48.990;8.346;2023-07-09T07:20:48;5.03;;;4.53;;
5054;SDS011;13829;48.990;8.346;2023-07-09T07:23:17;4.38;;;3.67;;
5054;SDS011;13829;48.990;8.346;2023-07-09T07:25:44;6.50;;;4.35;;
5054;SDS011;13829;48.990;8.346;2023-07-09T07:28:12;7.63;;;4.55;;
5054;SDS011;13829;48.990;8.346;2023-07-09T07:30:39;4.95;;;4.45;;
5054;SDS011;13829;48.990;8.346;2023-07-09T07:33:06;5.10;;;4.22;;
5054;SDS011;13829;48.990;8.346;2023-07-09T07:35:32;4.93;;;4.10;;
5054;SDS011;13829;48.990;8.346;2023-07-09T07:37:59;5.75;;;4.55;;
5054;SDS011;13829;48.990;8.346;2023-07-09T07:40:28;7.03;;;4.50;;
5054;SDS011;13829;48.990;8.346;2023-07-09T07:42:55;6.15;;;4.15;;
5054;SDS011;13829;48.990;8.346;2023-07-09T07:45:22;6.32;;;4.72;;
5054;SDS011;13829;48.990;8.346;2023-07-09T07:47:49;6.97;;;4.40;;
5054;SDS011;13829;48.990;8.346;2023-07-09T07:50:16;5.30;;;4.82;;
5054;SDS011;13829;48.990;8.346;2023-07-09T07:52:43;6.97;;;4.93;;
5054;SDS011;13829;48.990;8.346;2023-07-09T07:55:10;9.55;;;4.65;;
5054;SDS011;13829;48.990;8.346;2023-07-09T07:57:39;4.93;;;4.30;;
5054;SDS011;13829;48.990;8.346;2023-07-09T08:00:06;7.57;;;5.32;;
5054;SDS011;13829;48.990;8.346;2023-07-09T08:02:34;7.82;;;4.78;;
5054;SDS011;13829;48.990;8.346;2023-07-09T08:05:01;5.88;;;4.25;;
5054;SDS011;13829;48.990;8.346;2023-07-09T08:07:28;6.13;;;4.55;;
5054;SDS011;13829;48.990;8.346;2023-07-09T08:09:55;5.40;;;4.53;;
5054;SDS011;13829;48.990;8.346;2023-07-09T08:12:22;6.45;;;4.43;;
5054;SDS011;13829;48.990;8.346;2023-07-09T08:14:50;8.95;;;4.68;;
5054;SDS011;13829;48.990;8.346;2023-07-09T08:17:17;6.10;;;3.97;;
5054;SDS011;13829;48.990;8.346;2023-07-09T08:19:45;11.45;;;4.60;;
5054;SDS011;13829;48.990;8.346;2023-07-09T08:22:14;5.78;;;4.47;;
5054;SDS011;13829;48.990;8.346;2023-07-09T08:24:42;7.28;;;4.45;;
5054;SDS011;13829;48.990;8.346;2023-07-09T08:27:09;7.43;;;4.78;;
5054;SDS011;13829;48.990;8.346;2023-07-09T08:29:36;5.78;;;4.47;;
5054;SDS011;13829;48.990;8.346;2023-07-09T08:32:07;5.32;;;4.60;;
5054;SDS011;13829;48.990;8.346;2023-07-09T08:34:35;6.50;;;4.25;;
5054;SDS011;13829;48.990;8.346;2023-07-09T08:37:04;5.18;;;4.57;;
5054;SDS011;13829;48.990;8.346;2023-07-09T08:39:32;7.55;;;4.90;;
5054;SDS011;13829;48.990;8.346;2023-07-09T08:41:59;7.63;;;4.60;;
5054;SDS011;13829;48.990;8.346;2023-07-09T08:44:46;7.53;;;4.88;;
5054;SDS011;13829;48.990;8.346;2023-07-09T08:47:36;6.45;;;4.13;;
5054;SDS011;13829;48.990;8.346;2023-07-09T08:50:14;6.78;;;4.57;;
5054;SDS011;13829;48.990;8.346;2023-07-09T08:52:46;8.60;;;4.50;;
5054;SDS011;13829;48.990;8.346;2023-07-09T08:55:17;5.95;;;4.15;;
5054;SDS011;13829;48.990;8.346;2023-07-09T08:57:48;4.50;;;4.05;;
5054;SDS011;13829;48.990;8.346;2023-07-09T09:00:21;5.85;;;4.20;;
5054;SDS011;13829;48.990;8.346;2023-07-09T09:02:58;6.38;;;4.20;;
5054;SDS011;13829;48.990;8.346;2023-07-09T09:05:28;7.95;;;4.35;;
5054;SDS011;13829;48.990;8.346;2023-07-09T09:08:02;10.48;;;4.18;;
5054;SDS011;13829;48.990;8.346;2023-07-09T09:10:39;5.38;;;4.32;;
5054;SDS011;13829;48.990;8.346;2023-07-09T09:13:14;7.07;;;4.68;;
5054;SDS011;13829;48.990;8.346;2023-07-09T09:15:45;4.82;;;4.25;;
5054;SDS011;13829;48.990;8.346;2023-07-09T09:18:20;5.85;;;4.55;;
5054;SDS011;13829;48.990;8.346;2023-07-09T09:20:55;5.60;;;4.05;;
5054;SDS011;13829;48.990;8.346;2023-07-09T09:23:43;5.20;;;4.13;;
5054;SDS011;13829;48.990;8.346;2023-07-09T09:26:17;5.88;;;4.45;;
5054;SDS011;13829;48.990;8.346;2023-07-09T09:28:51;6.65;;;3.88;;
5054;SDS011;13829;48.990;8.346;2023-07-09T09:31:19;5.53;;;4.10;;
5054;SDS011;13829;48.990;8.346;2023-07-09T09:33:48;5.18;;;4.03;;
5054;SDS011;13829;48.990;8.346;2023-07-09T09:36:17;5.75;;;3.97;;
5054;SDS011;13829;48.990;8.346;2023-07-09T09:38:47;6.20;;;4.50;;
5054;SDS011;13829;48.990;8.346;2023-07-09T09:41:16;6.78;;;4.90;;
5054;SDS011;13829;48.990;8.346;2023-07-09T09:43:46;7.82;;;5.43;;
5054;SDS011;13829;48.990;8.346;2023-07-09T09:46:18;6.88;;;4.20;;
5054;SDS011;13829;48.990;8.346;2023-07-09T09:48:49;4.75;;;4.20;;
5054;SDS011;13829;48.990;8.346;2023-07-09T09:51:20;6.25;;;4.78;;
5054;SDS011;13829;48.990;8.346;2023-07-09T09:53:50;5.63;;;4.85;;
5054;SDS011;13829;48.990;8.346;2023-07-09T09:56:25;4.88;;;4.05;;
5054;SDS011;13829;48.990;8.346;2023-07-09T09:58:57;4.90;;;4.10;;
5054;SDS011;13829;48.990;8.346;2023-07-09T10:01:26;6.57;;;4.47;;
5054;SDS011;13829;48.990;8.346;2023-07-09T10:03:57;6.40;;;5.10;;
5054;SDS011;13829;48.990;8.346;2023-07-09T10:06:28;5.93;;;4.90;;
5054;SDS011;13829;48.990;8.346;2023-07-09T10:09:02;7.20;;;4.72;;
5054;SDS011;13829;48.990;8.346;2023-07-09T10:11:45;7.82;;;5.35;;
5054;SDS011;13829;48.990;8.346;2023-07-09T10:17:11;7.13;;;4.78;;
5054;SDS011;13829;48.990;8.346;2023-07-09T10:19:53;4.93;;;4.35;;
5054;SDS011;13829;48.990;8.346;2023-07-09T10:22:31;6.85;;;4.72;;
5054;SDS011;13829;48.990;8.346;2023-07-09T10:25:12;7.43;;;4.03;;
5054;SDS011;13829;48.990;8.346;2023-07-09T10:27:59;7.70;;;4.60;;
5054;SDS011;13829;48.990;8.346;2023-07-09T10:31:03;5.63;;;4.00;;
5054;SDS011;13829;48.990;8.346;2023-07-09T10:33:46;5.70;;;4.15;;
5054;SDS011;13829;48.990;8.346;2023-07-09T10:36:31;9.52;;;4.07;;
5054;SDS011;13829;48.990;8.346;2023-07-09T10:39:15;5.03;;;4.00;;
5054;SDS011;13829;48.990;8.346;2023-07-09T10:41:48;8.38;;;4.20;;
5054;SDS011;13829;48.990;8.346;2023-07-09T10:44:20;6.97;;;4.75;;
5054;SDS011;13829;48.990;8.346;2023-07-09T10:46:56;6.20;;;4.22;;
5054;SDS011;13829;48.990;8.346;2023-07-09T10:49:30;5.63;;;4.32;;
5054;SDS011;13829;48.990;8.346;2023-07-09T10:52:06;6.53;;;4.47;;
5054;SDS011;13829;48.990;8.346;2023-07-09T10:54:53;4.68;;;4.03;;
5054;SDS011;13829;48.990;8.346;2023-07-09T10:57:28;4.90;;;4.07;;
5054;SDS011;13829;48.990;8.346;2023-07-09T11:00:02;4.32;;;3.85;;
5054;SDS011;13829;48.990;8.346;2023-07-09T11:02:32;7.15;;;4.03;;
5054;SDS011;13829;48.990;8.346;2023-07-09T11:05:03;4.35;;;3.85;;
5054;SDS011;13829;48.990;8.346;2023-07-09T11:07:36;6.40;;;4.25;;
5054;SDS011;13829;48.990;8.346;2023-07-09T11:10:24;7.40;;;4.28;;
5054;SDS011;13829;48.990;8.346;2023-07-09T11:12:57;5.32;;;4.00;;
5054;SDS011;13829;48.990;8.346;2023-07-09T11:15:30;8.98;;;4.75;;
5054;SDS011;13829;48.990;8.346;2023-07-09T11:18:03;7.95;;;3.80;;
5054;SDS011;13829;48.990;8.346;2023-07-09T11:20:33;6.53;;;3.65;;
5054;SDS011;13829;48.990;8.346;2023-07-09T11:23:16;6.18;;;3.83;;
5054;SDS011;13829;48.990;8.346;2023-07-09T11:25:45;6.88;;;4.07;;
5054;SDS011;13829;48.990;8.346;2023-07-09T11:28:14;6.72;;;4.10;;
5054;SDS011;13829;48.990;8.346;2023-07-09T11:30:45;5.63;;;3.90;;
5054;SDS011;13829;48.990;8.346;2023-07-09T11:33:16;6.43;;;3.90;;
5054;SDS011;13829;48.990;8.346;2023-07-09T11:35:47;5.60;;;3.70;;
5054;SDS011;13829;48.990;8.346;2023-07-09T11:38:19;4.70;;;3.63;;
5054;SDS011;13829;48.990;8.346;2023-07-09T11:40:49;5.82;;;4.25;;
5054;SDS011;13829;48.990;8.346;2023-07-09T11:43:26;6.03;;;3.75;;
5054;SDS011;13829;48.990;8.346;2023-07-09T11:45:59;6.55;;;3.97;;
5054;SDS011;13829;48.990;8.346;2023-07-09T11:48:39;6.07;;;4.40;;
5054;SDS011;13829;48.990;8.346;2023-07-09T11:51:08;5.60;;;3.70;;
5054;SDS011;13829;48.990;8.346;2023-07-09T11:53:45;5.57;;;3.38;;
5054;SDS011;13829;48.990;8.346;2023-07-09T11:56:18;4.50;;;3.47;;
5054;SDS011;13829;48.990;8.346;2023-07-09T11:58:49;4.97;;;3.90;;
5054;SDS011;13829;48.990;8.346;2023-07-09T12:01:17;5.63;;;3.70;;
5054;SDS011;13829;48.990;8.346;2023-07-09T12:03:48;8.00;;;3.92;;
5054;SDS011;13829;48.990;8.346;2023-07-09T12:06:17;4.65;;;3.35;;
5054;SDS011;13829;48.990;8.346;2023-07-09T12:08:50;5.38;;;3.83;;
5054;SDS011;13829;48.990;8.346;2023-07-09T12:11:19;6.03;;;3.25;;
5054;SDS011;13829;48.990;8.346;2023-07-09T12:13:48;5.03;;;3.60;;
5054;SDS011;13829;48.990;8.346;2023-07-09T12:16:22;5.70;;;3.50;;
5054;SDS011;13829;48.990;8.346;2023-07-09T12:18:51;5.65;;;3.60;;
5054;SDS011;13829;48.990;8.346;2023-07-09T12:21:18;4.88;;;3.33;;
5054;SDS011;13829;48.990;8.346;2023-07-09T12:23:46;5.53;;;3.58;;
5054;SDS011;13829;48.990;8.346;2023-07-09T12:26:17;6.18;;;3.65;;
5054;SDS011;13829;48.990;8.346;2023-07-09T12:28:49;4.78;;;3.92;;
5054;SDS011;13829;48.990;8.346;2023-07-09T12:31:17;5.15;;;3.72;;
5054;SDS011;13829;48.990;8.346;2023-07-09T12:33:53;5.93;;;4.20;;
5054;SDS011;13829;48.990;8.346;2023-07-09T12:36:23;8.30;;;3.75;;
5054;SDS011;13829;48.990;8.346;2023-07-09T12:38:52;7.43;;;3.95;;
5054;SDS011;13829;48.990;8.346;2023-07-09T12:41:32;6.38;;;3.72;;
5054;SDS011;13829;48.990;8.346;2023-07-09T12:44:05;4.68;;;3.85;;
5054;SDS011;13829;48.990;8.346;2023-07-09T12:46:41;6.70;;;4.28;;
5054;SDS011;13829;48.990;8.346;2023-07-09T12:49:10;5.95;;;4.00;;
5054;SDS011;13829;48.990;8.346;2023-07-09T12:51:48;6.97;;;4.18;;
5054;SDS011;13829;48.990;8.346;2023-07-09T12:54:17;9.07;;;3.85;;
5054;SDS011;13829;48.990;8.346;2023-07-09T12:56:51;6.75;;;3.70;;
5054;SDS011;13829;48.990;8.346;2023-07-09T12:59:20;6.72;;;4.30;;
5054;SDS011;13829;48.990;8.346;2023-07-09T13:01:51;6.28;;;3.75;;
5054;SDS011;13829;48.990;8.346;2023-07-09T13:04:27;8.18;;;4.25;;
5054;SDS011;13829;48.990;8.346;2023-07-09T13:07:02;4.00;;;3.60;;
5054;SDS011;13829;48.990;8.346;2023-07-09T13:09:30;5.00;;;3.40;;
5054;SDS011;13829;48.990;8.346;2023-07-09T13:11:59;6.05;;;4.07;;
5054;SDS011;13829;48.990;8.346;2023-07-09T13:14:31;7.20;;;3.92;;
5054;SDS011;13829;48.990;8.346;2023-07-09T13:17:04;6.30;;;3.80;;
5054;SDS011;13829;48.990;8.346;2023-07-09T13:19:34;4.80;;;4.28;;
5054;SDS011;13829;48.990;8.346;2023-07-09T13:22:02;3.92;;;3.40;;
5054;SDS011;13829;48.990;8.346;2023-07-09T13:24:33;4.13;;;3.28;;
5054;SDS011;13829;48.990;8.346;2023-07-09T13:27:01;5.30;;;3.58;;
5054;SDS011;13829;48.990;8.346;2023-07-09T13:29:31;7.00;;;4.20;;
5054;SDS011;13829;48.990;8.346;2023-07-09T13:32:00;5.82;;;4.07;;
5054;SDS011;13829;48.990;8.346;2023-07-09T13:34:27;5.80;;;3.85;;
5054;SDS011;13829;48.990;8.346;2023-07-09T13:36:58;5.53;;;3.90;;
5054;SDS011;13829;48.990;8.346;2023-07-09T13:39:25;4.80;;;3.72;;
5054;SDS011;13829;48.990;8.346;2023-07-09T13:41:52;6.45;;;3.90;;
5054;SDS011;13829;48.990;8.346;2023-07-09T13:44:22;5.75;;;3.78;;
5054;SDS011;13829;48.990;8.346;2023-07-09T13:46:53;4.22;;;3.83;;
5054;SDS011;13829;48.990;8.346;2023-07-09T13:49:22;5.75;;;3.47;;
5054;SDS011;13829;48.990;8.346;2023-07-09T13:51:53;6.65;;;4.00;;
5054;SDS011;13829;48.990;8.346;2023-07-09T13:54:25;6.22;;;3.90;;
5054;SDS011;13829;48.990;8.346;2023-07-09T13:57:00;4.65;;;3.75;;
5054;SDS011;13829;48.990;8.346;2023-07-09T13:59:29;7.00;;;4.10;;
5054;SDS011;13829;48.990;8.346;2023-07-09T14:01:56;5.03;;;4.32;;
5054;SDS011;13829;48.990;8.346;2023-07-09T14:04:25;5.75;;;3.90;;
5054;SDS011;13829;48.990;8.346;2023-07-09T14:06:54;5.93;;;4.43;;
5054;SDS011;13829;48.990;8.346;2023-07-09T14:09:21;5.32;;;4.45;;
5054;SDS011;13829;48.990;8.346;2023-07-09T14:11:48;4.38;;;3.75;;
5054;SDS011;13829;48.990;8.346;2023-07-09T14:14:18;5.95;;;3.65;;
5054;SDS011;13829;48.990;8.346;2023-07-09T14:16:50;4.65;;;3.85;;
5054;SDS011;13829;48.990;8.346;2023-07-09T14:19:19;8.90;;;4.15;;
5054;SDS011;13829;48.990;8.346;2023-07-09T14:21:49;8.38;;;4.60;;
5054;SDS011;13829;48.990;8.346;2023-07-09T14:24:19;5.82;;;3.88;;
5054;SDS011;13829;48.990;8.346;2023-07-09T14:26:48;6.55;;;3.63;;
5054;SDS011;13829;48.990;8.346;2023-07-09T14:29:16;5.53;;;3.78;;
5054;SDS011;13829;48.990;8.346;2023-07-09T14:31:44;6.30;;;4.03;;
5054;SDS011;13829;48.990;8.346;2023-07-09T14:34:18;4.97;;;3.80;;
5054;SDS011;13829;48.990;8.346;2023-07-09T14:36:48;7.65;;;3.63;;
5054;SDS011;13829;48.990;8.346;2023-07-09T14:39:18;4.63;;;3.33;;
5054;SDS011;13829;48.990;8.346;2023-07-09T14:41:46;5.43;;;3.85;;
5054;SDS011;13829;48.990;8.346;2023-07-09T14:44:17;5.13;;;3.58;;
5054;SDS011;13829;48.990;8.346;2023-07-09T14:46:49;4.90;;;3.95;;
5054;SDS011;13829;48.990;8.346;2023-07-09T14:49:19;6.88;;;3.90;;
5054;SDS011;13829;48.990;8.346;2023-07-09T14:51:47;6.60;;;3.53;;
5054;SDS011;13829;48.990;8.346;2023-07-09T14:54:19;4.47;;;3.78;;
5054;SDS011;13829;48.990;8.346;2023-07-09T14:56:49;6.97;;;3.95;;
5054;SDS011;13829;48.990;8.346;2023-07-09T14:59:17;5.60;;;3.83;;
5054;SDS011;13829;48.990;8.346;2023-07-09T15:01:44;4.47;;;3.70;;
5054;SDS011;13829;48.990;8.346;2023-07-09T15:04:27;6.25;;;4.68;;
5054;SDS011;13829;48.990;8.346;2023-07-09T15:06:58;6.65;;;3.97;;
5054;SDS011;13829;48.990;8.346;2023-07-09T15:09:27;9.70;;;4.47;;
5054;SDS011;13829;48.990;8.346;2023-07-09T15:11:55;4.72;;;3.97;;
5054;SDS011;13829;48.990;8.346;2023-07-09T15:14:25;6.15;;;3.88;;
5054;SDS011;13829;48.990;8.346;2023-07-09T15:16:53;6.70;;;4.43;;
5054;SDS011;13829;48.990;8.346;2023-07-09T15:19:22;6.13;;;3.67;;